sensor_id;sensor_type;location;lat;lon;timestamp;pressure;altitude;pressure_sealevel;temperature;humidity
81224;BME280;70698;44.402;18.522;2023-07-20T00:01:12;97046.13;;;19.20;79.09
81224;BME280;70698;44.402;18.522;2023-07-20T00:03:37;97044.06;;;19.22;78.57
81224;BME280;70698;44.402;18.522;2023-07-20T00:06:03;97052.09;;;19.10;78.21
81224;BME280;70698;44.402;18.522;2023-07-20T00:08:29;97045.81;;;19.16;78.08
81224;BME280;70698;44.402;18.522;2023-07-20T00:10:55;97041.47;;;19.27;77.63
81224;BME280;70698;44.402;18.522;2023-07-20T00:13:21;97029.75;;;19.28;77.76
81224;BME280;70698;44.402;18.522;2023-07-20T00:15:46;97027.25;;;19.21;77.10
81224;BME280;70698;44.402;18.522;2023-07-20T00:18:12;97025.97;;;18.96;78.07
81224;BME280;70698;44.402;18.522;2023-07-20T00:20:38;97013.47;;;18.96;79.08
81224;BME280;70698;44.402;18.522;2023-07-20T00:23:04;97013.56;;;19.01;80.22
81224;BME280;70698;44.402;18.522;2023-07-20T00:25:32;97013.56;;;19.01;80.02
81224;BME280;70698;44.402;18.522;2023-07-20T00:27:58;97024.22;;;19.01;79.87
81224;BME280;70698;44.402;18.522;2023-07-20T00:30:24;97033.75;;;18.97;80.52
81224;BME280;70698;44.402;18.522;2023-07-20T00:32:50;97016.06;;;18.79;80.57
81224;BME280;70698;44.402;18.522;2023-07-20T00:35:15;97011.34;;;18.81;81.57
81224;BME280;70698;44.402;18.522;2023-07-20T00:37:41;97005.41;;;18.91;80.81
81224;BME280;70698;44.402;18.522;2023-07-20T00:40:07;96998.69;;;18.88;80.79
81224;BME280;70698;44.402;18.522;2023-07-20T00:42:33;97004.72;;;18.84;82.11
81224;BME280;70698;44.402;18.522;2023-07-20T00:44:59;96994.16;;;18.89;81.43
81224;BME280;70698;44.402;18.522;2023-07-20T00:47:26;97001.97;;;19.07;80.20
81224;BME280;70698;44.402;18.522;2023-07-20T00:49:53;96995.28;;;18.93;81.32
81224;BME280;70698;44.402;18.522;2023-07-20T00:52:20;96989.72;;;18.78;80.66
81224;BME280;70698;44.402;18.522;2023-07-20T00:54:47;96993.41;;;18.77;81.70
81224;BME280;70698;44.402;18.522;2023-07-20T00:57:16;96991.69;;;18.71;82.45
81224;BME280;70698;44.402;18.522;2023-07-20T00:59:43;97003.88;;;18.67;83.25
81224;BME280;70698;44.402;18.522;2023-07-20T01:02:09;97008.72;;;18.70;82.87
81224;BME280;70698;44.402;18.522;2023-07-20T01:04:35;97001.22;;;18.55;82.65
81224;BME280;70698;44.402;18.522;2023-07-20T01:09:46;97005.94;;;18.13;84.54
81224;BME280;70698;44.402;18.522;2023-07-20T01:12:24;97005.94;;;18.01;85.03
81224;BME280;70698;44.402;18.522;2023-07-20T01:14:51;97000.84;;;18.00;85.36
81224;BME280;70698;44.402;18.522;2023-07-20T01:17:17;97000.13;;;18.16;85.04
81224;BME280;70698;44.402;18.522;2023-07-20T01:19:43;96992.50;;;18.20;84.32
81224;BME280;70698;44.402;18.522;2023-07-20T01:33:02;97016.91;;;18.80;81.16
81224;BME280;70698;44.402;18.522;2023-07-20T01:35:29;97011.66;;;18.85;81.36
81224;BME280;70698;44.402;18.522;2023-07-20T01:37:56;97017.31;;;18.60;82.35
81224;BME280;70698;44.402;18.522;2023-07-20T01:40:24;97023.78;;;18.53;82.64
81224;BME280;70698;44.402;18.522;2023-07-20T01:42:52;97020.91;;;18.42;82.44
81224;BME280;70698;44.402;18.522;2023-07-20T01:45:18;97035.38;;;18.46;83.12
81224;BME280;70698;44.402;18.522;2023-07-20T01:47:44;97040.44;;;18.60;82.09
81224;BME280;70698;44.402;18.522;2023-07-20T01:50:10;97051.53;;;18.68;82.77
81224;BME280;70698;44.402;18.522;2023-07-20T01:52:36;97071.53;;;18.82;82.27
81224;BME280;70698;44.402;18.522;2023-07-20T01:55:03;97123.91;;;19.05;82.07
81224;BME280;70698;44.402;18.522;2023-07-20T01:57:30;97326.56;;;19.15;81.63
81224;BME280;70698;44.402;18.522;2023-07-20T01:59:56;97338.84;;;19.05;82.64
81224;BME280;70698;44.402;18.522;2023-07-20T02:02:26;97352.41;;;19.15;82.37
81224;BME280;70698;44.402;18.522;2023-07-20T02:04:52;97381.22;;;19.18;80.58
81224;BME280;70698;44.402;18.522;2023-07-20T02:07:18;97378.09;;;18.98;80.61
81224;BME280;70698;44.402;18.522;2023-07-20T02:09:44;97414.19;;;18.82;83.34
81224;BME280;70698;44.402;18.522;2023-07-20T02:12:09;97438.53;;;18.19;86.29
81224;BME280;70698;44.402;18.522;2023-07-20T02:14:35;97434.19;;;17.88;87.60
81224;BME280;70698;44.402;18.522;2023-07-20T02:17:00;97439.81;;;17.62;88.15
81224;BME280;70698;44.402;18.522;2023-07-20T02:19:30;97449.47;;;17.50;88.81
81224;BME280;70698;44.402;18.522;2023-07-20T02:21:56;97443.63;;;17.41;89.68
81224;BME280;70698;44.402;18.522;2023-07-20T02:24:22;97432.69;;;17.31;89.08
81224;BME280;70698;44.402;18.522;2023-07-20T02:26:48;97430.09;;;17.25;89.84
81224;BME280;70698;44.402;18.522;2023-07-20T02:29:14;97432.38;;;17.21;89.85
81224;BME280;70698;44.402;18.522;2023-07-20T02:31:39;97406.91;;;17.13;89.63
81224;BME280;70698;44.402;18.522;2023-07-20T02:34:06;97432.56;;;17.19;90.50
81224;BME280;70698;44.402;18.522;2023-07-20T02:36:32;97435.47;;;17.18;90.35
81224;BME280;70698;44.402;18.522;2023-07-20T02:39:01;97431.44;;;17.09;89.59
81224;BME280;70698;44.402;18.522;2023-07-20T02:41:30;97424.72;;;17.06;90.23
81224;BME280;70698;44.402;18.522;2023-07-20T02:43:56;97431.44;;;17.09;90.60
81224;BME280;70698;44.402;18.522;2023-07-20T02:46:22;97427.22;;;17.01;89.73
81224;BME280;70698;44.402;18.522;2023-07-20T02:48:47;97434.00;;;16.97;89.56
81224;BME280;70698;44.402;18.522;2023-07-20T02:51:13;97430.72;;;16.95;90.56
81224;BME280;70698;44.402;18.522;2023-07-20T02:53:38;97438.84;;;17.00;91.55
81224;BME280;70698;44.402;18.522;2023-07-20T02:56:04;97446.34;;;17.10;91.72
81224;BME280;70698;44.402;18.522;2023-07-20T02:58:30;97430.41;;;17.10;91.69
81224;BME280;70698;44.402;18.522;2023-07-20T03:00:56;97430.00;;;17.13;91.15
81224;BME280;70698;44.402;18.522;2023-07-20T03:03:22;97429.00;;;17.07;89.90
81224;BME280;70698;44.402;18.522;2023-07-20T03:05:47;97426.94;;;17.09;89.72
81224;BME280;70698;44.402;18.522;2023-07-20T03:08:20;97411.06;;;17.03;90.03
81224;BME280;70698;44.402;18.522;2023-07-20T03:10:45;97398.63;;;17.03;90.21
81224;BME280;70698;44.402;18.522;2023-07-20T03:13:11;97388.22;;;17.02;89.44
81224;BME280;70698;44.402;18.522;2023-07-20T03:15:38;97373.97;;;16.96;89.70
81224;BME280;70698;44.402;18.522;2023-07-20T03:18:04;97370.38;;;16.84;90.32
81224;BME280;70698;44.402;18.522;2023-07-20T03:20:30;97364.81;;;16.92;90.00
81224;BME280;70698;44.402;18.522;2023-07-20T03:22:56;97353.94;;;16.94;90.67
81224;BME280;70698;44.402;18.522;2023-07-20T03:25:22;97355.81;;;16.93;91.29
81224;BME280;70698;44.402;18.522;2023-07-20T03:27:48;97356.03;;;16.92;90.98
81224;BME280;70698;44.402;18.522;2023-07-20T03:30:14;97360.72;;;16.90;91.16
81224;BME280;70698;44.402;18.522;2023-07-20T03:32:40;97345.91;;;16.82;90.79
81224;BME280;70698;44.402;18.522;2023-07-20T03:35:06;97348.75;;;16.81;91.14
81224;BME280;70698;44.402;18.522;2023-07-20T03:37:31;97338.59;;;16.77;91.04
81224;BME280;70698;44.402;18.522;2023-07-20T03:39:57;97287.91;;;16.79;90.45
81224;BME280;70698;44.402;18.522;2023-07-20T03:42:23;97236.75;;;16.72;90.12
81224;BME280;70698;44.402;18.522;2023-07-20T03:44:49;97224.72;;;16.69;90.70
81224;BME280;70698;44.402;18.522;2023-07-20T03:47:16;97245.53;;;16.72;89.91
81224;BME280;70698;44.402;18.522;2023-07-20T03:49:41;97238.25;;;16.68;90.70
81224;BME280;70698;44.402;18.522;2023-07-20T03:52:07;97250.28;;;16.64;91.08
81224;BME280;70698;44.402;18.522;2023-07-20T03:54:33;97236.81;;;16.65;91.50
81224;BME280;70698;44.402;18.522;2023-07-20T03:56:58;97241.31;;;16.65;90.66
81224;BME280;70698;44.402;18.522;2023-07-20T03:59:24;97236.41;;;16.68;91.24
81224;BME280;70698;44.402;18.522;2023-07-20T04:01:50;97244.34;;;16.68;91.47
81224;BME280;70698;44.402;18.522;2023-07-20T04:04:16;97256.38;;;16.71;91.75
81224;BME280;70698;44.402;18.522;2023-07-20T04:06:41;97248.78;;;16.74;91.85
81224;BME280;70698;44.402;18.522;2023-07-20T04:09:10;97238.59;;;16.71;91.39
81224;BME280;70698;44.402;18.522;2023-07-20T04:11:36;97234.31;;;16.70;91.19
81224;BME280;70698;44.402;18.522;2023-07-20T04:14:02;97223.88;;;16.75;90.96
81224;BME280;70698;44.402;18.522;2023-07-20T04:16:27;97223.03;;;16.75;90.98
81224;BME280;70698;44.402;18.522;2023-07-20T04:18:56;97214.72;;;16.71;90.75
81224;BME280;70698;44.402;18.522;2023-07-20T04:21:23;97228.75;;;16.78;90.42
81224;BME280;70698;44.402;18.522;2023-07-20T04:23:48;97220.13;;;16.83;89.64
81224;BME280;70698;44.402;18.522;2023-07-20T04:26:14;97198.13;;;16.76;90.84
81224;BME280;70698;44.402;18.522;2023-07-20T04:28:43;97187.31;;;16.77;90.26
81224;BME280;70698;44.402;18.522;2023-07-20T04:31:13;97170.50;;;16.84;91.41
81224;BME280;70698;44.402;18.522;2023-07-20T04:33:39;97161.06;;;16.88;90.94
81224;BME280;70698;44.402;18.522;2023-07-20T04:36:06;97132.97;;;16.98;89.74
81224;BME280;70698;44.402;18.522;2023-07-20T04:38:34;97130.69;;;17.02;89.85
81224;BME280;70698;44.402;18.522;2023-07-20T04:41:09;97120.13;;;16.95;90.55
81224;BME280;70698;44.402;18.522;2023-07-20T04:43:43;97098.69;;;16.97;90.70
81224;BME280;70698;44.402;18.522;2023-07-20T04:46:10;97082.81;;;17.08;87.90
81224;BME280;70698;44.402;18.522;2023-07-20T04:48:37;97074.06;;;17.19;88.19
81224;BME280;70698;44.402;18.522;2023-07-20T04:51:03;97077.63;;;17.13;88.80
81224;BME280;70698;44.402;18.522;2023-07-20T04:53:29;97080.78;;;17.22;88.71
81224;BME280;70698;44.402;18.522;2023-07-20T04:55:56;97085.97;;;17.29;89.44
81224;BME280;70698;44.402;18.522;2023-07-20T04:58:23;97102.63;;;17.36;88.79
81224;BME280;70698;44.402;18.522;2023-07-20T05:00:51;97108.22;;;17.46;89.27
81224;BME280;70698;44.402;18.522;2023-07-20T05:03:17;97111.44;;;17.66;90.21
81224;BME280;70698;44.402;18.522;2023-07-20T05:05:44;97099.19;;;17.77;89.19
81224;BME280;70698;44.402;18.522;2023-07-20T05:08:10;97120.34;;;17.83;90.19
81224;BME280;70698;44.402;18.522;2023-07-20T05:10:36;97120.84;;;17.92;90.14
81224;BME280;70698;44.402;18.522;2023-07-20T05:13:01;97144.56;;;18.05;89.12
81224;BME280;70698;44.402;18.522;2023-07-20T05:15:27;97130.56;;;17.98;89.70
81224;BME280;70698;44.402;18.522;2023-07-20T05:17:54;97118.88;;;18.11;89.12
81224;BME280;70698;44.402;18.522;2023-07-20T05:20:19;97138.78;;;18.08;89.27
81224;BME280;70698;44.402;18.522;2023-07-20T05:22:45;97149.06;;;18.16;89.50
81224;BME280;70698;44.402;18.522;2023-07-20T05:25:11;97148.28;;;18.27;88.06
81224;BME280;70698;44.402;18.522;2023-07-20T05:27:37;97164.94;;;18.46;88.56
81224;BME280;70698;44.402;18.522;2023-07-20T05:30:04;97173.19;;;18.56;88.29
81224;BME280;70698;44.402;18.522;2023-07-20T05:32:30;97168.28;;;18.41;88.71
81224;BME280;70698;44.402;18.522;2023-07-20T05:34:56;97181.84;;;18.52;88.12
81224;BME280;70698;44.402;18.522;2023-07-20T05:37:21;97185.22;;;18.59;87.75
81224;BME280;70698;44.402;18.522;2023-07-20T05:39:47;97188.19;;;18.50;86.79
81224;BME280;70698;44.402;18.522;2023-07-20T05:42:13;97192.84;;;18.55;88.26
81224;BME280;70698;44.402;18.522;2023-07-20T05:44:40;97184.06;;;18.66;88.05
81224;BME280;70698;44.402;18.522;2023-07-20T05:47:06;97205.69;;;18.81;87.03
81224;BME280;70698;44.402;18.522;2023-07-20T05:49:32;97206.25;;;18.83;86.98
81224;BME280;70698;44.402;18.522;2023-07-20T05:51:57;97217.50;;;18.85;87.44
81224;BME280;70698;44.402;18.522;2023-07-20T05:54:24;97220.97;;;18.86;87.30
81224;BME280;70698;44.402;18.522;2023-07-20T05:56:50;97218.75;;;18.95;87.85
81224;BME280;70698;44.402;18.522;2023-07-20T05:59:16;97214.25;;;18.95;88.30
81224;BME280;70698;44.402;18.522;2023-07-20T06:01:43;97213.06;;;19.14;85.42
81224;BME280;70698;44.402;18.522;2023-07-20T06:04:09;97221.25;;;19.24;84.59
81224;BME280;70698;44.402;18.522;2023-07-20T06:06:34;97213.03;;;19.38;82.63
81224;BME280;70698;44.402;18.522;2023-07-20T06:09:00;97215.41;;;19.62;81.09
81224;BME280;70698;44.402;18.522;2023-07-20T06:11:29;97228.97;;;19.49;81.33
81224;BME280;70698;44.402;18.522;2023-07-20T06:13:56;97228.03;;;19.44;80.59
81224;BME280;70698;44.402;18.522;2023-07-20T06:16:22;97214.28;;;19.47;80.14
81224;BME280;70698;44.402;18.522;2023-07-20T06:18:47;97227.22;;;19.55;80.96
81224;BME280;70698;44.402;18.522;2023-07-20T06:21:13;97222.22;;;19.58;80.93
81224;BME280;70698;44.402;18.522;2023-07-20T06:23:39;97233.81;;;19.64;81.32
81224;BME280;70698;44.402;18.522;2023-07-20T06:26:06;97224.88;;;19.70;81.21
81224;BME280;70698;44.402;18.522;2023-07-20T06:28:32;97219.22;;;19.66;80.73
81224;BME280;70698;44.402;18.522;2023-07-20T06:31:02;97224.00;;;19.81;79.42
81224;BME280;70698;44.402;18.522;2023-07-20T06:33:28;97227.91;;;19.90;80.31
81224;BME280;70698;44.402;18.522;2023-07-20T06:35:53;97231.84;;;20.16;78.66
81224;BME280;70698;44.402;18.522;2023-07-20T06:38:19;97231.16;;;20.54;78.80
81224;BME280;70698;44.402;18.522;2023-07-20T06:40:48;97235.59;;;20.65;78.32
81224;BME280;70698;44.402;18.522;2023-07-20T06:43:13;97238.03;;;20.50;77.38
81224;BME280;70698;44.402;18.522;2023-07-20T06:45:39;97237.88;;;20.56;77.85
81224;BME280;70698;44.402;18.522;2023-07-20T06:48:04;97233.50;;;20.67;78.54
81224;BME280;70698;44.402;18.522;2023-07-20T06:50:30;97235.91;;;20.69;76.28
81224;BME280;70698;44.402;18.522;2023-07-20T06:52:56;97232.69;;;20.50;76.46
81224;BME280;70698;44.402;18.522;2023-07-20T06:55:21;97241.59;;;20.39;77.39
81224;BME280;70698;44.402;18.522;2023-07-20T06:57:47;97244.09;;;20.45;78.15
81224;BME280;70698;44.402;18.522;2023-07-20T07:00:13;97239.63;;;20.34;78.32
81224;BME280;70698;44.402;18.522;2023-07-20T07:02:38;97249.75;;;20.32;79.11
81224;BME280;70698;44.402;18.522;2023-07-20T07:05:04;97250.63;;;20.38;77.89
81224;BME280;70698;44.402;18.522;2023-07-20T07:07:31;97241.97;;;20.47;77.44
81224;BME280;70698;44.402;18.522;2023-07-20T07:09:56;97232.19;;;20.53;76.15
81224;BME280;70698;44.402;18.522;2023-07-20T07:12:22;97243.75;;;20.58;76.32
81224;BME280;70698;44.402;18.522;2023-07-20T07:14:47;97249.22;;;20.47;76.80
81224;BME280;70698;44.402;18.522;2023-07-20T07:17:13;97243.13;;;20.51;76.71
81224;BME280;70698;44.402;18.522;2023-07-20T07:19:39;97245.25;;;20.66;75.83
81224;BME280;70698;44.402;18.522;2023-07-20T07:22:06;97244.75;;;20.69;74.92
81224;BME280;70698;44.402;18.522;2023-07-20T07:24:31;97243.34;;;20.83;75.23
81224;BME280;70698;44.402;18.522;2023-07-20T07:27:00;97237.81;;;21.07;74.19
81224;BME280;70698;44.402;18.522;2023-07-20T07:29:26;97237.34;;;20.93;72.31
81224;BME280;70698;44.402;18.522;2023-07-20T07:31:52;97230.03;;;21.05;72.74
81224;BME280;70698;44.402;18.522;2023-07-20T07:34:17;97229.34;;;21.31;72.73
81224;BME280;70698;44.402;18.522;2023-07-20T07:36:43;97229.34;;;21.53;71.56
81224;BME280;70698;44.402;18.522;2023-07-20T07:39:09;97237.19;;;21.60;72.22
81224;BME280;70698;44.402;18.522;2023-07-20T07:41:35;97238.47;;;21.57;72.11
81224;BME280;70698;44.402;18.522;2023-07-20T07:44:01;97238.53;;;21.62;71.62
81224;BME280;70698;44.402;18.522;2023-07-20T07:46:27;97231.75;;;21.76;72.69
81224;BME280;70698;44.402;18.522;2023-07-20T07:48:52;97217.09;;;21.84;73.23
81224;BME280;70698;44.402;18.522;2023-07-20T07:51:19;97221.22;;;21.92;72.06
81224;BME280;70698;44.402;18.522;2023-07-20T07:53:46;97224.22;;;21.95;72.40
81224;BME280;70698;44.402;18.522;2023-07-20T07:56:11;97220.66;;;21.89;70.21
81224;BME280;70698;44.402;18.522;2023-07-20T07:58:37;97223.31;;;22.11;72.21
81224;BME280;70698;44.402;18.522;2023-07-20T08:01:04;97217.09;;;22.38;70.67
81224;BME280;70698;44.402;18.522;2023-07-20T08:03:29;97230.75;;;22.36;69.68
81224;BME280;70698;44.402;18.522;2023-07-20T08:05:55;97231.00;;;22.35;68.39
81224;BME280;70698;44.402;18.522;2023-07-20T08:08:21;97227.47;;;22.29;69.10
81224;BME280;70698;44.402;18.522;2023-07-20T08:10:47;97226.50;;;22.40;68.56
81224;BME280;70698;44.402;18.522;2023-07-20T08:13:13;97218.47;;;22.72;68.07
81224;BME280;70698;44.402;18.522;2023-07-20T08:15:39;97221.75;;;22.84;66.66
81224;BME280;70698;44.402;18.522;2023-07-20T08:18:05;97221.50;;;22.86;65.96
81224;BME280;70698;44.402;18.522;2023-07-20T08:20:31;97220.59;;;23.17;66.08
81224;BME280;70698;44.402;18.522;2023-07-20T08:22:57;97204.69;;;23.52;68.14
81224;BME280;70698;44.402;18.522;2023-07-20T08:25:25;97208.50;;;23.72;66.81
81224;BME280;70698;44.402;18.522;2023-07-20T08:27:50;97205.31;;;23.70;64.46
81224;BME280;70698;44.402;18.522;2023-07-20T08:30:16;97204.72;;;23.57;63.24
81224;BME280;70698;44.402;18.522;2023-07-20T08:32:42;97215.47;;;23.63;64.72
81224;BME280;70698;44.402;18.522;2023-07-20T08:35:08;97198.09;;;23.90;63.37
81224;BME280;70698;44.402;18.522;2023-07-20T08:37:34;97206.75;;;24.28;64.45
81224;BME280;70698;44.402;18.522;2023-07-20T08:40:00;97201.38;;;24.48;62.75
81224;BME280;70698;44.402;18.522;2023-07-20T08:42:27;97205.94;;;24.58;58.77
81224;BME280;70698;44.402;18.522;2023-07-20T08:44:54;97191.44;;;24.43;58.89
81224;BME280;70698;44.402;18.522;2023-07-20T08:47:20;97211.88;;;24.65;57.56
81224;BME280;70698;44.402;18.522;2023-07-20T08:49:48;97195.19;;;24.68;56.37
81224;BME280;70698;44.402;18.522;2023-07-20T08:52:14;97203.78;;;24.85;56.53
81224;BME280;70698;44.402;18.522;2023-07-20T08:54:40;97196.78;;;25.04;57.66
81224;BME280;70698;44.402;18.522;2023-07-20T08:57:06;97199.66;;;25.28;57.17
81224;BME280;70698;44.402;18.522;2023-07-20T08:59:34;97208.31;;;25.15;56.66
81224;BME280;70698;44.402;18.522;2023-07-20T09:02:02;97206.41;;;25.20;54.99
81224;BME280;70698;44.402;18.522;2023-07-20T09:04:29;97214.22;;;25.12;55.85
81224;BME280;70698;44.402;18.522;2023-07-20T09:06:55;97202.56;;;25.32;53.11
81224;BME280;70698;44.402;18.522;2023-07-20T09:09:22;97199.88;;;25.37;52.74
81224;BME280;70698;44.402;18.522;2023-07-20T09:11:49;97195.44;;;25.66;52.60
81224;BME280;70698;44.402;18.522;2023-07-20T09:14:15;97191.53;;;25.92;54.35
81224;BME280;70698;44.402;18.522;2023-07-20T09:19:15;97205.53;;;26.38;53.48
81224;BME280;70698;44.402;18.522;2023-07-20T09:21:48;97197.97;;;26.35;52.19
81224;BME280;70698;44.402;18.522;2023-07-20T09:24:14;97205.38;;;26.25;52.79
81224;BME280;70698;44.402;18.522;2023-07-20T09:26:45;97203.78;;;26.52;52.50
81224;BME280;70698;44.402;18.522;2023-07-20T09:29:11;97190.41;;;26.71;53.06
81224;BME280;70698;44.402;18.522;2023-07-20T09:31:37;97196.31;;;26.73;50.51
81224;BME280;70698;44.402;18.522;2023-07-20T09:34:04;97193.56;;;26.78;51.66
81224;BME280;70698;44.402;18.522;2023-07-20T09:36:33;97187.91;;;26.80;52.24
81224;BME280;70698;44.402;18.522;2023-07-20T09:39:00;97192.78;;;26.78;53.58
81224;BME280;70698;44.402;18.522;2023-07-20T09:41:25;97192.38;;;26.94;53.48
81224;BME280;70698;44.402;18.522;2023-07-20T09:43:52;97194.16;;;27.04;52.79
81224;BME280;70698;44.402;18.522;2023-07-20T09:46:18;97191.44;;;27.28;52.28
81224;BME280;70698;44.402;18.522;2023-07-20T09:48:54;97192.53;;;27.51;51.83
81224;BME280;70698;44.402;18.522;2023-07-20T09:51:23;97190.97;;;27.21;51.42
81224;BME280;70698;44.402;18.522;2023-07-20T09:53:52;97182.69;;;27.60;50.72
81224;BME280;70698;44.402;18.522;2023-07-20T09:56:21;97188.63;;;27.62;53.53
81224;BME280;70698;44.402;18.522;2023-07-20T09:58:46;97196.34;;;27.50;53.84
81224;BME280;70698;44.402;18.522;2023-07-20T10:01:13;97192.66;;;27.64;52.97
81224;BME280;70698;44.402;18.522;2023-07-20T10:03:43;97195.03;;;27.66;53.84
81224;BME280;70698;44.402;18.522;2023-07-20T10:06:13;97190.50;;;27.61;52.13
81224;BME280;70698;44.402;18.522;2023-07-20T10:08:41;97191.03;;;27.82;51.92
81224;BME280;70698;44.402;18.522;2023-07-20T10:11:08;97185.94;;;27.80;54.07
81224;BME280;70698;44.402;18.522;2023-07-20T10:13:38;97190.03;;;27.78;52.55
81224;BME280;70698;44.402;18.522;2023-07-20T10:16:10;97192.38;;;28.03;50.95
81224;BME280;70698;44.402;18.522;2023-07-20T10:21:11;97192.91;;;28.24;49.35
81224;BME280;70698;44.402;18.522;2023-07-20T10:23:39;97195.44;;;28.34;50.56
81224;BME280;70698;44.402;18.522;2023-07-20T10:26:04;97195.06;;;28.22;49.10
81224;BME280;70698;44.402;18.522;2023-07-20T10:28:31;97193.50;;;28.35;50.50
81224;BME280;70698;44.402;18.522;2023-07-20T10:30:57;97194.22;;;28.40;50.73
81224;BME280;70698;44.402;18.522;2023-07-20T10:33:23;97198.66;;;28.50;49.25
81224;BME280;70698;44.402;18.522;2023-07-20T10:36:03;97192.72;;;28.66;51.01
81224;BME280;70698;44.402;18.522;2023-07-20T10:38:56;97178.47;;;29.21;44.46
81224;BME280;70698;44.402;18.522;2023-07-20T10:41:28;97186.88;;;28.78;48.41
81224;BME280;70698;44.402;18.522;2023-07-20T10:44:02;97189.50;;;28.97;48.01
81224;BME280;70698;44.402;18.522;2023-07-20T10:46:44;97183.97;;;28.56;47.78
81224;BME280;70698;44.402;18.522;2023-07-20T10:49:11;97184.97;;;29.06;45.76
81224;BME280;70698;44.402;18.522;2023-07-20T10:51:45;97182.63;;;29.32;43.29
81224;BME280;70698;44.402;18.522;2023-07-20T10:56:41;97173.88;;;29.48;44.07
81224;BME280;70698;44.402;18.522;2023-07-20T10:59:35;97159.22;;;29.49;41.70
81224;BME280;70698;44.402;18.522;2023-07-20T11:02:06;97177.00;;;29.42;40.85
81224;BME280;70698;44.402;18.522;2023-07-20T11:07:03;97169.78;;;29.37;42.47
81224;BME280;70698;44.402;18.522;2023-07-20T11:09:33;97159.25;;;29.36;43.40
81224;BME280;70698;44.402;18.522;2023-07-20T11:14:53;97159.38;;;30.16;42.29
81224;BME280;70698;44.402;18.522;2023-07-20T11:17:19;97155.84;;;30.16;41.56
81224;BME280;70698;44.402;18.522;2023-07-20T11:19:48;97156.38;;;30.18;45.39
81224;BME280;70698;44.402;18.522;2023-07-20T11:22:17;97161.38;;;30.47;39.84
81224;BME280;70698;44.402;18.522;2023-07-20T11:24:43;97153.19;;;30.24;39.72
81224;BME280;70698;44.402;18.522;2023-07-20T11:27:08;97149.72;;;30.46;40.85
81224;BME280;70698;44.402;18.522;2023-07-20T11:29:35;97152.94;;;30.48;42.02
81224;BME280;70698;44.402;18.522;2023-07-20T11:32:02;97152.16;;;30.56;39.39
81224;BME280;70698;44.402;18.522;2023-07-20T11:34:30;97157.16;;;30.41;38.50
81224;BME280;70698;44.402;18.522;2023-07-20T11:36:56;97159.06;;;30.62;40.04
81224;BME280;70698;44.402;18.522;2023-07-20T11:39:23;97154.22;;;30.82;40.91
81224;BME280;70698;44.402;18.522;2023-07-20T11:41:52;97139.84;;;30.81;42.03
81224;BME280;70698;44.402;18.522;2023-07-20T11:44:18;97148.03;;;30.36;39.65
81224;BME280;70698;44.402;18.522;2023-07-20T11:46:44;97148.25;;;30.71;41.49
81224;BME280;70698;44.402;18.522;2023-07-20T11:49:11;97148.41;;;30.21;40.73
81224;BME280;70698;44.402;18.522;2023-07-20T11:51:37;97145.56;;;30.49;40.42
81224;BME280;70698;44.402;18.522;2023-07-20T11:54:04;97133.56;;;29.97;40.59
81224;BME280;70698;44.402;18.522;2023-07-20T11:56:30;97141.13;;;30.30;41.49
81224;BME280;70698;44.402;18.522;2023-07-20T11:59:00;97135.13;;;30.64;42.61
81224;BME280;70698;44.402;18.522;2023-07-20T12:01:28;97134.69;;;30.71;39.48
81224;BME280;70698;44.402;18.522;2023-07-20T12:04:01;97138.47;;;30.92;40.88
81224;BME280;70698;44.402;18.522;2023-07-20T12:06:27;97131.13;;;30.62;41.42
81224;BME280;70698;44.402;18.522;2023-07-20T12:08:59;97140.66;;;30.82;41.56
81224;BME280;70698;44.402;18.522;2023-07-20T12:11:38;97132.53;;;30.28;41.39
81224;BME280;70698;44.402;18.522;2023-07-20T12:14:06;97134.34;;;30.19;41.70
81224;BME280;70698;44.402;18.522;2023-07-20T12:16:32;97120.41;;;31.36;38.68
81224;BME280;70698;44.402;18.522;2023-07-20T12:19:10;97119.03;;;32.24;37.00
81224;BME280;70698;44.402;18.522;2023-07-20T12:21:37;97107.44;;;32.70;36.13
81224;BME280;70698;44.402;18.522;2023-07-20T12:24:04;97115.16;;;32.51;36.40
81224;BME280;70698;44.402;18.522;2023-07-20T12:26:31;97112.94;;;33.29;36.57
81224;BME280;70698;44.402;18.522;2023-07-20T12:28:58;97111.47;;;33.61;36.27
81224;BME280;70698;44.402;18.522;2023-07-20T12:31:26;97110.03;;;33.34;35.74
81224;BME280;70698;44.402;18.522;2023-07-20T12:33:53;97103.81;;;33.54;35.25
81224;BME280;70698;44.402;18.522;2023-07-20T12:36:20;97102.84;;;32.45;38.65
81224;BME280;70698;44.402;18.522;2023-07-20T12:38:46;97085.66;;;32.70;40.58
81224;BME280;70698;44.402;18.522;2023-07-20T12:41:13;97084.00;;;33.66;34.01
81224;BME280;70698;44.402;18.522;2023-07-20T12:43:39;97094.88;;;33.75;34.34
81224;BME280;70698;44.402;18.522;2023-07-20T12:46:05;97090.75;;;32.80;37.48
81224;BME280;70698;44.402;18.522;2023-07-20T12:48:31;97076.59;;;32.96;36.74
81224;BME280;70698;44.402;18.522;2023-07-20T12:50:57;97086.63;;;33.04;38.13
81224;BME280;70698;44.402;18.522;2023-07-20T12:53:23;97081.09;;;32.92;37.35
81224;BME280;70698;44.402;18.522;2023-07-20T12:55:48;97085.53;;;33.55;36.16
81224;BME280;70698;44.402;18.522;2023-07-20T12:58:14;97089.31;;;33.42;35.65
81224;BME280;70698;44.402;18.522;2023-07-20T13:00:44;97084.56;;;32.71;36.04
81224;BME280;70698;44.402;18.522;2023-07-20T13:03:10;97074.31;;;33.36;36.10
81224;BME280;70698;44.402;18.522;2023-07-20T13:05:36;97069.41;;;33.91;35.64
81224;BME280;70698;44.402;18.522;2023-07-20T13:08:02;97062.81;;;35.07;34.73
81224;BME280;70698;44.402;18.522;2023-07-20T13:10:28;97066.94;;;35.25;33.82
81224;BME280;70698;44.402;18.522;2023-07-20T13:12:54;97070.94;;;34.46;33.73
81224;BME280;70698;44.402;18.522;2023-07-20T13:15:20;97063.69;;;33.84;34.81